Bend, OR

1:25 PM PDT on April 23, 2018 (GMT -0700)
Bend Municipal

Weather History for KBDN - May, 2014

Change the Weather History Date:

Friday, May 16, 2014

  Actual Average (KRDM) Record (KRDM)
Temperature  
Mean Temperature 60 °F -  
Max Temperature 73 °F 64 °F 92 °F (2008)
Min Temperature 46 °F 33 °F 24 °F (1984)
Degree Days  
Heating Degree Days 6    
Growing Degree Days 10 (Base 50)    
Moisture  
Dew Point 31 °F    
Average Humidity 34    
Maximum Humidity 66    
Minimum Humidity 16    
Precipitation  
Precipitation 0.00 in - - ()
Sea Level Pressure  
Sea Level Pressure 30.08 in    
Wind  
Wind Speed 5 mph (WNW)    
Max Wind Speed 17 mph    
Max Gust Speed 24 mph    
Visibility 10 miles    
Events      
Averages and records for this station are not official NWS values.
T = Trace of Precipitation, MM = Missing Value Source: NWS Daily Summary

Daily Weather History Graph

Daily Weather History Graph

Search for Another Location

Airport or City:

Astronomy

May. 16, 2014 Rise Set
Actual Time 5:37 AM PDT 8:25 PM PDT
Civil Twilight 5:03 AM PDT 8:59 PM PDT
Nautical Twilight 4:21 AM PDT 9:42 PM PDT
Astronomical Twilight 3:31 AM PDT 10:31 PM PDT
Moon 10:37 PM PDT (5/16) 7:24 AM PDT (5/16)
Length of Visible Light 15h 55m
Length of Day
14h 48m
Waning Gibbous, 95% of the Moon is Illuminated
May 16
Waning Gibbous
May 21
Last Quarter
May 28
New
Jun 5
First Quarter
Jun 12
Full

Hourly Weather History & Observations

Time (PDT) Temp. Dew Point Humidity Pressure Visibility Wind Dir Wind Speed Gust Speed Precip Events Conditions
12:15 AM 59.0 °F 39.2 °F 48% 30.11 in 10.0 mi South 4.6 mph - N/A   Clear
12:35 AM 57.2 °F 39.2 °F 51% 30.12 in 10.0 mi Calm Calm - N/A   Clear
12:55 AM 57.2 °F 39.2 °F 51% 30.12 in 10.0 mi Calm Calm - N/A   Clear
1:15 AM 57.2 °F 39.2 °F 51% 30.11 in 10.0 mi Calm Calm - N/A   Clear
1:35 AM 59.0 °F 37.4 °F 45% 30.11 in 10.0 mi South 6.9 mph - N/A   Clear
1:55 AM 60.8 °F 37.4 °F 42% 30.11 in 10.0 mi NE 5.8 mph - N/A   Clear
2:35 AM 59.0 °F 35.6 °F 42% 30.11 in 10.0 mi Calm Calm - N/A   Clear
2:55 AM 57.2 °F 37.4 °F 48% 30.11 in 10.0 mi East 3.5 mph - N/A   Clear
3:15 AM 57.2 °F 37.4 °F 48% 30.11 in 10.0 mi Calm Calm - N/A   Clear
3:35 AM 59.0 °F 35.6 °F 42% 30.10 in 10.0 mi East 6.9 mph - N/A   Clear
3:55 AM 57.2 °F 37.4 °F 48% 30.11 in 10.0 mi Calm Calm - N/A   Clear
4:15 AM 55.4 °F 37.4 °F 51% 30.11 in 10.0 mi Calm Calm - N/A   Clear
4:35 AM 55.4 °F 37.4 °F 51% 30.10 in 10.0 mi Calm Calm - N/A   Clear
5:15 AM 53.6 °F 37.4 °F 54% 30.10 in 10.0 mi ESE 4.6 mph - N/A   Clear
5:35 AM 51.8 °F 37.4 °F 58% 30.10 in 10.0 mi Calm Calm - N/A   Clear
5:55 AM 50.0 °F 37.4 °F 62% 30.10 in 10.0 mi Calm Calm - N/A   Clear
6:15 AM 48.2 °F 37.4 °F 66% 30.10 in 10.0 mi Calm Calm - N/A   Clear
6:55 AM 50.0 °F 37.4 °F 62% 30.11 in 10.0 mi Calm Calm - N/A   Clear
7:15 AM 55.4 °F 28.4 °F 36% 30.11 in 10.0 mi SW 6.9 mph - N/A   Clear
7:35 AM 57.2 °F 28.4 °F 33% 30.11 in 10.0 mi WSW 5.8 mph - N/A   Clear
7:55 AM 57.2 °F 28.4 °F 33% 30.11 in 10.0 mi WSW 5.8 mph - N/A   Clear
8:15 AM 59.0 °F 26.6 °F 29% 30.11 in 10.0 mi WSW 5.8 mph - N/A   Clear
8:35 AM 59.0 °F 26.6 °F 29% 30.11 in 10.0 mi WSW 6.9 mph - N/A   Clear
8:55 AM 60.8 °F 26.6 °F 27% 30.11 in 10.0 mi West 8.1 mph - N/A   Clear
9:15 AM 62.6 °F 24.8 °F 24% 30.11 in 10.0 mi WNW 8.1 mph - N/A   Clear
9:35 AM 62.6 °F 26.6 °F 26% 30.11 in 10.0 mi NNW 6.9 mph - N/A   Clear
9:55 AM 64.4 °F 26.6 °F 24% 30.10 in 10.0 mi NW 4.6 mph - N/A   Clear
10:15 AM 64.4 °F 24.8 °F 22% 30.10 in 10.0 mi SW 5.8 mph - N/A   Clear
10:35 AM 66.2 °F 26.6 °F 23% 30.09 in 10.0 mi SW 8.1 mph - N/A   Clear
10:55 AM 64.4 °F 28.4 °F 26% 30.09 in 10.0 mi SSW 9.2 mph - N/A   Clear
11:15 AM 66.2 °F 26.6 °F 23% 30.09 in 10.0 mi SSW 9.2 mph - N/A   Clear
11:35 AM 66.2 °F 26.6 °F 23% 30.09 in 10.0 mi WSW 5.8 mph - N/A   Clear
12:15 PM 68.0 °F 23.0 °F 18% 30.08 in 10.0 mi NW 3.5 mph - N/A   Clear
12:35 PM 68.0 °F 24.8 °F 20% 30.07 in 10.0 mi NNW 6.9 mph - N/A   Clear
12:55 PM 69.8 °F 26.6 °F 20% 30.07 in 10.0 mi WNW 10.4 mph - N/A   Clear
1:15 PM 69.8 °F 30.2 °F 23% 30.06 in 10.0 mi NE 6.9 mph 16.1 mph N/A   Clear
1:35 PM 73.4 °F 30.2 °F 20% 30.06 in 10.0 mi NW 15.0 mph 19.6 mph N/A   Clear
1:55 PM 71.6 °F 28.4 °F 20% 30.05 in 10.0 mi NW 15.0 mph 21.9 mph N/A   Clear
2:15 PM 73.4 °F 26.6 °F 18% 30.05 in 10.0 mi WNW 17.3 mph 23.0 mph N/A   Clear
2:35 PM 73.4 °F 26.6 °F 18% 30.05 in 10.0 mi WSW 5.8 mph 18.4 mph N/A   Clear
2:55 PM 73.4 °F 26.6 °F 18% 30.04 in 10.0 mi NW 12.7 mph 17.3 mph N/A   Clear
3:15 PM 73.4 °F 24.8 °F 16% 30.04 in 10.0 mi WNW 16.1 mph - N/A   Clear
3:35 PM 73.4 °F 24.8 °F 16% 30.04 in 10.0 mi West 12.7 mph 23.0 mph N/A   Clear
3:55 PM 73.4 °F 24.8 °F 16% 30.04 in 10.0 mi West 11.5 mph 17.3 mph N/A   Clear
4:35 PM 73.4 °F 28.4 °F 19% 30.03 in 10.0 mi West 15.0 mph 19.6 mph N/A   Clear
4:55 PM 71.6 °F 32.0 °F 23% 30.04 in 10.0 mi WNW 13.8 mph - N/A   Clear
5:15 PM 69.8 °F 32.0 °F 25% 30.04 in 10.0 mi West 11.5 mph 18.4 mph N/A   Clear
5:35 PM 71.6 °F 32.0 °F 23% 30.04 in 10.0 mi WNW 15.0 mph - N/A   Clear
5:55 PM 66.2 °F 30.2 °F 26% 30.04 in 10.0 mi WNW 17.3 mph 21.9 mph N/A   Clear
6:15 PM 64.4 °F 28.4 °F 26% 30.04 in 10.0 mi NW 17.3 mph 24.2 mph N/A   Clear
6:35 PM 64.4 °F 28.4 °F 26% 30.05 in 10.0 mi NW 12.7 mph 20.7 mph N/A   Clear
6:55 PM 64.4 °F 28.4 °F 26% 30.05 in 10.0 mi NNW 11.5 mph 20.7 mph N/A   Clear
7:15 PM 62.6 °F 28.4 °F 27% 30.05 in 10.0 mi NNW 12.7 mph - N/A   Clear
7:35 PM 62.6 °F 30.2 °F 30% 30.06 in 10.0 mi NW 11.5 mph 17.3 mph N/A   Clear
7:55 PM 60.8 °F 28.4 °F 29% 30.06 in 10.0 mi NNW 9.2 mph - N/A   Clear
8:15 PM 59.0 °F 28.4 °F 31% 30.07 in 10.0 mi WNW 5.8 mph - N/A   Clear
8:55 PM 57.2 °F 26.6 °F 31% 30.08 in 10.0 mi NNW 10.4 mph - N/A   Clear
9:15 PM 57.2 °F 26.6 °F 31% 30.08 in 10.0 mi NNW 5.8 mph - N/A   Clear
9:35 PM 55.4 °F 28.4 °F 36% 30.09 in 10.0 mi North 5.8 mph - N/A   Clear
9:55 PM 55.4 °F 28.4 °F 36% 30.09 in 10.0 mi Calm Calm - N/A   Clear
10:15 PM 53.6 °F 32.0 °F 44% 30.09 in 10.0 mi North 5.8 mph - N/A   Clear
10:35 PM 51.8 °F 32.0 °F 47% 30.08 in 10.0 mi Calm Calm - N/A   Clear
10:55 PM 51.8 °F 33.8 °F 50% 30.08 in 10.0 mi NNE 3.5 mph - N/A   Clear
11:35 PM 46.4 °F 32.0 °F 57% 30.09 in 10.0 mi Calm Calm - N/A   Clear
11:55 PM 46.4 °F 32.0 °F 57% 30.09 in 10.0 mi Calm Calm - N/A   Clear